Time;durP1;ratioP1;P1;durP2;ratioP2;P2;SDS_P1;SDS_P2;PMS_P1;PMS_P2;Temp;Humidity;BMP_temperature;BMP_pressure;BME280_temperature;BME280_humidity;BME280_pressure;Samples;Min_cycle;Max_cycle;Signal;HPM_P1;HPM_P2
2023/11/30 00:00:29;;;;;;;31.20;24.30;;;;;21.70;99169.00;;;;2070466;28;20222;-53
2023/11/30 00:01:29;;;;;;;33.50;24.10;;;;;21.70;99164.00;;;;2071021;28;20214;-53
2023/11/30 00:02:32;;;;;;;35.60;24.57;;;;;21.70;99166.00;;;;2070017;28;20210;-53
2023/11/30 00:03:32;;;;;;;31.17;24.30;;;;;21.70;99166.00;;;;2071043;28;20933;-53
2023/11/30 00:04:32;;;;;;;33.63;24.10;;;;;21.70;99158.00;;;;2060768;28;20267;-53
2023/11/30 00:05:33;;;;;;;35.60;23.60;;;;;21.70;99157.00;;;;2071092;28;20941;-53
2023/11/30 00:06:39;;;;;;;32.47;23.60;;;;;21.70;99167.00;;;;2070385;28;20719;-53
2023/11/30 00:07:40;;;;;;;34.22;24.08;;;;;21.70;99158.00;;;;2064963;28;20214;-53
2023/11/30 00:08:40;;;;;;;33.97;23.50;;;;;21.70;99148.00;;;;2070726;28;20214;-53
2023/11/30 00:09:40;;;;;;;34.27;24.20;;;;;21.70;99161.00;;;;2058813;28;20272;-53
2023/11/30 00:10:41;;;;;;;32.90;23.60;;;;;21.60;99160.00;;;;2066602;28;20218;-54
2023/11/30 00:11:41;;;;;;;33.77;23.90;;;;;21.70;99159.00;;;;2064209;28;20242;-53
2023/11/30 00:12:41;;;;;;;36.70;26.40;;;;;21.70;99157.00;;;;2068964;28;20229;-53
2023/11/30 00:13:42;;;;;;;33.30;24.00;;;;;21.60;99163.00;;;;2069524;28;20214;-53
2023/11/30 00:14:42;;;;;;;33.47;23.33;;;;;21.60;98966.00;;;;2058074;28;20752;-53
2023/11/30 00:15:42;;;;;;;29.60;22.90;;;;;21.60;99153.00;;;;2067889;28;20210;-53
2023/11/30 00:16:43;;;;;;;28.77;21.87;;;;;21.60;99157.00;;;;2070568;28;20250;-53
2023/11/30 00:17:43;;;;;;;31.50;22.40;;;;;21.60;99158.00;;;;2070012;28;20206;-53
2023/11/30 00:18:46;;;;;;;33.90;23.90;;;;;21.60;99163.00;;;;2069843;28;20268;-53
2023/11/30 00:19:46;;;;;;;29.02;22.90;;;;;21.60;99150.00;;;;2061217;28;20222;-53
2023/11/30 00:20:47;;;;;;;31.00;22.33;;;;;21.60;99152.00;;;;2071031;28;20240;-53
2023/11/30 00:21:47;;;;;;;27.83;21.27;;;;;21.60;99151.00;;;;2065498;28;20211;-53
2023/11/30 00:22:47;;;;;;;28.60;21.83;;;;;21.60;99150.00;;;;2068171;28;20312;-53
2023/11/30 00:23:48;;;;;;;29.10;20.60;;;;;21.60;99160.00;;;;2068974;28;20246;-53
2023/11/30 00:24:48;;;;;;;27.27;20.77;;;;;21.50;99154.00;;;;2061219;28;20272;-53
2023/11/30 00:25:49;;;;;;;29.13;20.93;;;;;21.60;99158.00;;;;2070159;28;20207;-53
2023/11/30 00:26:49;;;;;;;25.80;20.33;;;;;21.60;99156.00;;;;2069599;28;20289;-53
2023/11/30 00:27:49;;;;;;;29.23;21.33;;;;;21.60;99149.00;;;;2069739;28;20214;-53
2023/11/30 00:28:50;;;;;;;28.30;21.27;;;;;21.60;99152.00;;;;2069893;28;20245;-53
2023/11/30 00:29:50;;;;;;;28.00;20.53;;;;;21.50;99150.00;;;;2075263;28;20248;-53
2023/11/30 00:30:50;;;;;;;23.53;19.00;;;;;21.50;99155.00;;;;2084709;28;20228;-53
2023/11/30 00:31:51;;;;;;;27.80;20.10;;;;;21.60;99155.00;;;;2070238;28;20238;-53
2023/11/30 00:32:51;;;;;;;27.37;20.77;;;;;21.60;99154.00;;;;2067132;28;20206;-53
2023/11/30 00:33:51;;;;;;;27.70;19.13;;;;;21.50;99149.00;;;;2064537;28;20214;-52
2023/11/30 00:34:52;;;;;;;26.10;19.60;;;;;21.60;99159.00;;;;2060570;28;20221;-53
2023/11/30 00:35:52;;;;;;;25.00;18.53;;;;;21.50;99150.00;;;;2069071;28;20214;-53
2023/11/30 00:36:52;;;;;;;25.50;18.97;;;;;21.50;99153.00;;;;2069966;28;20269;-53
2023/11/30 00:37:53;;;;;;;24.70;19.20;;;;;21.50;99155.00;;;;2067362;28;20225;-53
2023/11/30 00:38:53;;;;;;;22.90;17.50;;;;;21.50;99150.00;;;;2070585;28;20270;-53
2023/11/30 00:39:53;;;;;;;24.40;17.80;;;;;21.50;99151.00;;;;2061055;28;20206;-53
2023/11/30 00:40:54;;;;;;;22.17;16.50;;;;;21.50;99152.00;;;;2070240;28;20206;-53
2023/11/30 00:41:54;;;;;;;25.87;17.83;;;;;21.50;99154.00;;;;2070865;28;20241;-53
2023/11/30 00:42:54;;;;;;;24.37;17.97;;;;;21.50;99141.00;;;;2069544;28;20237;-53
2023/11/30 00:43:54;;;;;;;21.37;17.20;;;;;21.50;99143.00;;;;2067073;28;20207;-54
2023/11/30 00:44:55;;;;;;;22.77;17.47;;;;;21.50;99144.00;;;;2065306;28;20886;-53
2023/11/30 00:45:55;;;;;;;23.20;17.40;;;;;21.50;99145.00;;;;2070658;28;20948;-53
2023/11/30 00:46:55;;;;;;;19.80;16.70;;;;;21.50;99144.00;;;;2065364;28;20305;-53
2023/11/30 00:47:56;;;;;;;21.00;16.23;;;;;21.50;99142.00;;;;2067936;28;20248;-53
2023/11/30 00:48:56;;;;;;;21.80;16.77;;;;;20.80;99141.00;;;;2058635;28;20249;-54
2023/11/30 00:49:56;;;;;;;22.60;15.90;;;;;21.50;99144.00;;;;2069128;28;20233;-53
2023/11/30 00:50:57;;;;;;;20.00;15.93;;;;;21.50;99137.00;;;;2070616;28;20214;-53
2023/11/30 00:51:57;;;;;;;21.03;16.07;;;;;21.50;99137.00;;;;2068302;28;20253;-53
2023/11/30 00:52:57;;;;;;;21.27;16.10;;;;;21.50;99138.00;;;;2069937;28;20217;-53
2023/11/30 00:53:58;;;;;;;17.50;14.70;;;;;21.40;99139.00;;;;2060939;28;20206;-53
2023/11/30 00:54:58;;;;;;;19.20;14.47;;;;;21.40;99134.00;;;;2067469;28;20217;-53
2023/11/30 00:55:59;;;;;;;18.93;14.67;;;;;21.40;99135.00;;;;2060131;28;20215;-53
2023/11/30 00:56:59;;;;;;;18.80;14.30;;;;;21.40;99142.00;;;;2067785;28;20214;-53
2023/11/30 00:57:59;;;;;;;19.60;14.20;;;;;21.40;99132.00;;;;2070692;28;20461;-53
2023/11/30 00:59:00;;;;;;;18.43;15.10;;;;;21.40;99131.00;;;;2061254;28;20248;-53
2023/11/30 01:00:00;;;;;;;17.97;14.80;;;;;21.40;99133.00;;;;2085830;28;20209;-53
2023/11/30 01:01:00;;;;;;;19.67;15.47;;;;;21.40;99130.00;;;;2085032;28;20223;-53
2023/11/30 01:02:01;;;;;;;17.67;14.33;;;;;21.40;99122.00;;;;2067887;28;20210;-53
2023/11/30 01:03:01;;;;;;;17.77;14.33;;;;;21.40;99122.00;;;;2069063;28;20320;-53
2023/11/30 01:04:01;;;;;;;15.57;12.90;;;;;21.40;99124.00;;;;2060110;28;20214;-53
2023/11/30 01:05:02;;;;;;;18.77;14.43;;;;;21.40;99125.00;;;;2070390;28;20350;-52
2023/11/30 01:06:02;;;;;;;17.90;14.20;;;;;21.40;99133.00;;;;2070140;28;20218;-53
2023/11/30 01:07:03;;;;;;;18.57;14.00;;;;;21.40;99120.00;;;;2067388;28;20222;-53
2023/11/30 01:08:03;;;;;;;16.67;13.70;;;;;21.40;99124.00;;;;2070619;28;20305;-54
2023/11/30 01:09:04;;;;;;;19.43;14.37;;;;;21.40;99129.00;;;;2058017;28;20210;-53
2023/11/30 01:10:05;;;;;;;18.90;13.10;;;;;21.40;99124.00;;;;2070718;28;20216;-53
2023/11/30 01:11:06;;;;;;;16.45;13.95;;;;;21.40;99123.00;;;;2069777;28;20228;-53
2023/11/30 01:12:07;;;;;;;18.30;12.77;;;;;21.40;99127.00;;;;2070646;28;20213;-53
2023/11/30 01:13:07;;;;;;;16.43;13.30;;;;;21.40;99121.00;;;;2070097;28;20206;-53
2023/11/30 01:14:08;;;;;;;18.30;13.63;;;;;21.40;99128.00;;;;2059837;28;20218;-53
2023/11/30 01:15:09;;;;;;;15.17;12.80;;;;;21.40;99121.00;;;;2067471;28;20206;-53
2023/11/30 01:16:09;;;;;;;16.73;13.73;;;;;21.40;99127.00;;;;2069844;28;20218;-53
2023/11/30 01:17:09;;;;;;;16.17;13.17;;;;;21.40;99121.00;;;;2069455;28;20536;-53
2023/11/30 01:18:10;;;;;;;14.37;12.00;;;;;21.40;99124.00;;;;2069887;28;20215;-53
2023/11/30 01:19:10;;;;;;;14.53;11.60;;;;;21.30;99125.00;;;;2060834;28;20240;-53
2023/11/30 01:20:11;;;;;;;16.00;12.90;;;;;21.40;99118.00;;;;2067740;28;20221;-53
2023/11/30 01:21:11;;;;;;;17.50;13.17;;;;;21.40;99119.00;;;;2067606;28;20214;-54
2023/11/30 01:22:12;;;;;;;15.30;12.40;;;;;21.40;99118.00;;;;2066043;28;20242;-53
2023/11/30 01:23:12;;;;;;;15.80;12.00;;;;;21.20;99122.00;;;;2069566;28;20214;-53
2023/11/30 01:24:13;;;;;;;12.83;11.37;;;;;21.40;99122.00;;;;2050583;28;20215;-53
2023/11/30 01:25:13;;;;;;;15.00;12.40;;;;;21.30;99114.00;;;;2068248;28;20210;-52
2023/11/30 01:26:14;;;;;;;16.50;12.90;;;;;21.30;99119.00;;;;2070024;28;20268;-53
2023/11/30 01:27:15;;;;;;;13.87;11.50;;;;;21.30;98744.00;;;;2068100;28;20211;-53
2023/11/30 01:28:16;;;;;;;14.15;11.18;;;;;21.30;99118.00;;;;2068511;28;20210;-53
2023/11/30 01:29:16;;;;;;;16.20;11.93;;;;;21.30;99193.00;;;;2065631;28;20610;-53
2023/11/30 01:30:16;;;;;;;13.70;11.40;;;;;21.30;99124.00;;;;2085002;28;20653;-53
2023/11/30 01:31:17;;;;;;;14.00;11.20;;;;;21.30;99121.00;;;;2078766;28;20634;-56
2023/11/30 01:32:17;;;;;;;13.10;10.97;;;;;21.30;99124.00;;;;2070138;28;20249;-54
2023/11/30 01:33:18;;;;;;;11.97;10.67;;;;;21.30;99128.00;;;;2065457;28;20206;-54
2023/11/30 01:34:18;;;;;;;15.30;11.87;;;;;21.30;99116.00;;;;2060767;28;20226;-55
2023/11/30 01:35:18;;;;;;;12.77;11.00;;;;;20.50;99115.00;;;;2069620;28;20222;-54
2023/11/30 01:36:19;;;;;;;11.93;10.63;;;;;21.30;99115.00;;;;2070357;28;20234;-53
2023/11/30 01:37:19;;;;;;;12.40;10.27;;;;;21.30;99120.00;;;;2068438;28;20244;-52
2023/11/30 01:38:19;;;;;;;13.90;10.73;;;;;21.30;99117.00;;;;2070310;28;20202;-53
2023/11/30 01:39:20;;;;;;;14.43;10.70;;;;;21.30;99112.00;;;;2060855;28;20257;-53
2023/11/30 01:40:20;;;;;;;11.90;10.03;;;;;21.30;99117.00;;;;2069482;28;20678;-53
2023/11/30 01:41:20;;;;;;;11.70;9.67;;;;;21.30;99110.00;;;;2069323;28;20218;-53
2023/11/30 01:42:21;;;;;;;14.37;11.03;;;;;21.30;99125.00;;;;2067583;28;20346;-53
2023/11/30 01:43:21;;;;;;;11.53;9.97;;;;;21.30;99125.00;;;;2070085;28;20214;-52
2023/11/30 01:44:22;;;;;;;13.17;10.30;;;;;21.30;99119.00;;;;2059777;28;20250;-53
2023/11/30 01:45:22;;;;;;;11.80;9.37;;;;;21.30;99125.00;;;;2070444;28;20237;-53
2023/11/30 01:46:22;;;;;;;12.10;10.20;;;;;21.30;99124.00;;;;2068808;28;20205;-53
2023/11/30 01:47:23;;;;;;;11.30;9.33;;;;;21.30;99127.00;;;;2066581;28;20213;-54
2023/11/30 01:48:23;;;;;;;10.63;8.83;;;;;21.30;99114.00;;;;2069506;28;20210;-53
2023/11/30 01:49:24;;;;;;;12.90;10.67;;;;;21.20;99111.00;;;;2059026;28;20753;-52
2023/11/30 01:50:24;;;;;;;11.67;9.43;;;;;21.20;99123.00;;;;2061721;28;20211;-53
2023/11/30 01:51:25;;;;;;;12.30;10.00;;;;;21.30;99141.00;;;;2069668;28;20210;-53
2023/11/30 01:52:25;;;;;;;12.10;9.67;;;;;21.20;99111.00;;;;2068885;28;20260;-53
2023/11/30 01:53:25;;;;;;;12.43;9.93;;;;;19.90;99123.00;;;;2068874;28;20463;-54
2023/11/30 01:54:26;;;;;;;12.90;9.30;;;;;21.20;99082.00;;;;2057198;28;20228;-53
2023/11/30 01:55:26;;;;;;;10.63;9.47;;;;;21.20;99121.00;;;;2069072;28;20305;-53
2023/11/30 01:56:27;;;;;;;10.50;8.90;;;;;21.20;99121.00;;;;2068491;28;20230;-53
2023/11/30 01:57:27;;;;;;;11.20;9.23;;;;;21.20;99115.00;;;;2069102;28;20245;-53
2023/11/30 01:58:28;;;;;;;11.23;9.80;;;;;21.20;99200.00;;;;2069503;28;20233;-53
2023/11/30 01:59:29;;;;;;;11.10;9.03;;;;;21.20;99113.00;;;;2058516;28;20277;-53
2023/11/30 02:00:30;;;;;;;10.40;9.20;;;;;21.20;99112.00;;;;2067540;28;20446;-53
2023/11/30 02:01:30;;;;;;;10.40;9.17;;;;;21.20;99103.00;;;;2068201;28;20245;-53
2023/11/30 02:02:30;;;;;;;11.53;9.67;;;;;21.20;99095.00;;;;2061307;28;20206;-53
2023/11/30 02:03:31;;;;;;;12.17;9.20;;;;;20.40;99102.00;;;;2076573;28;20213;-53
2023/11/30 02:04:32;;;;;;;12.13;9.63;;;;;21.20;99072.00;;;;2063941;28;20654;-53
2023/11/30 02:05:32;;;;;;;11.40;9.17;;;;;21.20;99109.00;;;;2069282;28;20252;-53
2023/11/30 02:06:32;;;;;;;10.93;9.20;;;;;21.20;99102.00;;;;2068846;28;20686;-53
2023/11/30 02:07:33;;;;;;;11.47;9.03;;;;;21.20;99092.00;;;;2068604;28;20863;-53
2023/11/30 02:08:33;;;;;;;10.80;8.90;;;;;21.10;99092.00;;;;2067103;28;21149;-53
2023/11/30 02:09:34;;;;;;;10.83;9.13;;;;;21.10;99089.00;;;;2060465;28;20234;-53
2023/11/30 02:10:34;;;;;;;11.53;10.33;;;;;21.10;99085.00;;;;2070058;28;20686;-53
2023/11/30 02:11:34;;;;;;;10.90;9.50;;;;;21.10;99104.00;;;;2069648;28;20950;-53
2023/11/30 02:12:35;;;;;;;10.00;8.93;;;;;21.10;99089.00;;;;2069995;28;20214;-52
2023/11/30 02:13:35;;;;;;;10.20;9.20;;;;;21.10;99094.00;;;;2069095;28;20206;-53
2023/11/30 02:14:35;;;;;;;9.70;8.70;;;;;21.10;99083.00;;;;2059853;28;20234;-53
2023/11/30 02:15:36;;;;;;;9.80;8.33;;;;;21.10;99086.00;;;;2069262;28;20230;-53
2023/11/30 02:16:36;;;;;;;11.37;8.93;;;;;21.10;99087.00;;;;2069875;28;20218;-53
2023/11/30 02:17:36;;;;;;;10.63;9.17;;;;;21.10;99082.00;;;;2069147;28;20214;-53
2023/11/30 02:18:37;;;;;;;9.93;8.93;;;;;21.10;99087.00;;;;2067297;28;20221;-53
2023/11/30 02:19:39;;;;;;;11.53;8.53;;;;;21.10;99087.00;;;;2060155;28;20241;-53
2023/11/30 02:20:39;;;;;;;10.25;9.05;;;;;21.10;99086.00;;;;2069337;28;20268;-53
2023/11/30 02:21:48;;;;;;;9.60;8.20;;;;;21.10;99083.00;;;;2069950;28;20214;-53
2023/11/30 02:22:49;;;;;;;9.65;8.65;;;;;21.10;99087.00;;;;2068427;28;20675;-53
2023/11/30 02:23:50;;;;;;;10.13;9.10;;;;;21.10;99090.00;;;;2069666;28;20218;-53
2023/11/30 02:24:50;;;;;;;9.67;8.70;;;;;21.10;99079.00;;;;2059938;28;20245;-53
2023/11/30 02:25:50;;;;;;;9.43;8.30;;;;;21.10;99078.00;;;;2069277;28;21175;-53
2023/11/30 02:26:51;;;;;;;9.80;7.97;;;;;21.10;99080.00;;;;2068917;28;20948;-53
2023/11/30 02:27:51;;;;;;;11.00;8.80;;;;;21.10;99078.00;;;;2063865;28;20718;-53
2023/11/30 02:28:51;;;;;;;9.33;7.93;;;;;21.10;99080.00;;;;2068909;28;20692;-58
2023/11/30 02:29:52;;;;;;;10.43;9.33;;;;;21.10;99075.00;;;;2064954;28;20759;-53
2023/11/30 02:30:52;;;;;;;9.23;8.20;;;;;21.10;99079.00;;;;2077516;28;20221;-53
2023/11/30 02:31:52;;;;;;;8.97;8.17;;;;;21.10;99083.00;;;;2068155;28;20218;-55
2023/11/30 02:32:53;;;;;;;9.17;8.27;;;;;21.00;99080.00;;;;2066994;28;20268;-55
2023/11/30 02:33:53;;;;;;;9.67;8.40;;;;;21.00;99079.00;;;;2067795;28;20233;-55
2023/11/30 02:34:53;;;;;;;9.57;8.57;;;;;21.10;99073.00;;;;2059457;28;20218;-54
2023/11/30 02:35:54;;;;;;;8.70;7.83;;;;;21.00;99073.00;;;;2069822;28;20244;-53
2023/11/30 02:36:54;;;;;;;13.80;9.10;;;;;21.00;99069.00;;;;2067857;28;20222;-53
2023/11/30 02:37:54;;;;;;;10.30;8.80;;;;;21.00;99067.00;;;;2069788;28;20214;-54
2023/11/30 02:38:55;;;;;;;10.57;9.37;;;;;21.00;99077.00;;;;2066090;28;20268;-53
2023/11/30 02:39:55;;;;;;;9.00;7.50;;;;;21.00;99097.00;;;;2064732;28;20272;-53
2023/11/30 02:40:55;;;;;;;9.43;8.43;;;;;21.00;99075.00;;;;2069850;28;20224;-53
2023/11/30 02:41:56;;;;;;;9.13;8.07;;;;;21.00;99078.00;;;;2069179;28;21039;-53
2023/11/30 02:42:56;;;;;;;9.50;8.43;;;;;21.00;99090.00;;;;2069945;28;20988;-53
2023/11/30 02:43:57;;;;;;;8.63;7.73;;;;;21.00;99081.00;;;;2059785;28;20697;-52
2023/11/30 02:44:57;;;;;;;9.53;8.20;;;;;21.00;99080.00;;;;2069594;28;20753;-53
2023/11/30 02:45:57;;;;;;;8.40;7.60;;;;;21.00;99085.00;;;;2069509;28;20337;-53
2023/11/30 02:46:58;;;;;;;9.30;7.80;;;;;21.00;99075.00;;;;2068134;28;20217;-53
2023/11/30 02:47:58;;;;;;;11.10;7.80;;;;;21.00;99074.00;;;;2069231;28;20234;-53
2023/11/30 02:48:58;;;;;;;8.93;7.97;;;;;21.00;99077.00;;;;2059591;28;20212;-53
2023/11/30 02:49:59;;;;;;;8.13;7.30;;;;;21.00;99074.00;;;;2067814;28;20218;-53
2023/11/30 02:50:59;;;;;;;8.57;7.77;;;;;21.00;99076.00;;;;2069812;28;20241;-53
2023/11/30 02:51:59;;;;;;;11.80;7.20;;;;;21.00;99070.00;;;;2069381;28;20210;-53
2023/11/30 02:53:00;;;;;;;9.90;7.50;;;;;21.00;99070.00;;;;2068796;28;20229;-53
2023/11/30 02:54:00;;;;;;;9.60;7.40;;;;;21.00;99064.00;;;;2059576;28;20851;-53
2023/11/30 02:55:00;;;;;;;7.97;7.17;;;;;21.00;99063.00;;;;2069841;28;20635;-53
2023/11/30 02:56:01;;;;;;;8.63;7.73;;;;;21.00;99071.00;;;;2069013;28;20589;-53
2023/11/30 02:57:01;;;;;;;9.20;8.30;;;;;21.00;99063.00;;;;2068910;28;20284;-53
2023/11/30 02:58:01;;;;;;;8.30;7.00;;;;;21.00;99070.00;;;;2069733;28;20222;-53
2023/11/30 02:59:02;;;;;;;9.23;8.30;;;;;21.00;99071.00;;;;2058872;28;20218;-53
2023/11/30 03:00:04;;;;;;;8.00;7.20;;;;;21.00;99063.00;;;;2068546;28;20218;-53
2023/11/30 03:01:04;;;;;;;7.53;6.82;;;;;21.00;99077.00;;;;2069025;28;20293;-53
2023/11/30 03:02:05;;;;;;;9.27;8.20;;;;;20.90;99075.00;;;;2069874;28;20206;-53
2023/11/30 03:03:05;;;;;;;8.10;7.17;;;;;21.00;99074.00;;;;2068798;28;20217;-53
2023/11/30 03:04:05;;;;;;;8.53;7.00;;;;;21.00;99072.00;;;;2059943;28;20214;-52
2023/11/30 03:05:06;;;;;;;8.37;6.90;;;;;20.90;99061.00;;;;2069725;28;20238;-53
2023/11/30 03:06:11;;;;;;;8.40;7.60;;;;;21.00;99071.00;;;;2067392;28;20260;-53
2023/11/30 03:07:11;;;;;;;8.15;7.15;;;;;21.00;99068.00;;;;2068905;28;20202;-53
2023/11/30 03:08:11;;;;;;;8.43;7.60;;;;;21.00;99071.00;;;;2069170;28;20209;-53
2023/11/30 03:09:12;;;;;;;7.47;6.67;;;;;20.90;99069.00;;;;2059602;28;20218;-53
2023/11/30 03:10:12;;;;;;;8.03;7.23;;;;;20.90;99063.00;;;;2069341;28;20245;-53
2023/11/30 03:11:12;;;;;;;7.50;6.70;;;;;20.90;99068.00;;;;2069339;28;20217;-53
2023/11/30 03:12:14;;;;;;;8.00;6.97;;;;;20.90;99068.00;;;;2069753;28;20214;-53
2023/11/30 03:13:15;;;;;;;7.28;6.57;;;;;20.90;99064.00;;;;2069276;28;20212;-53
2023/11/30 03:14:15;;;;;;;8.53;7.73;;;;;20.90;99061.00;;;;2059383;28;20234;-53
2023/11/30 03:15:18;;;;;;;6.93;6.23;;;;;20.90;99060.00;;;;2066953;28;20253;-53
2023/11/30 03:16:25;;;;;;;7.95;7.10;;;;;20.90;99060.00;;;;2069511;28;20289;-52
2023/11/30 03:17:25;;;;;;;8.90;7.35;;;;;20.90;99061.00;;;;2066408;28;20206;-53
2023/11/30 03:18:25;;;;;;;7.80;7.00;;;;;20.90;99031.00;;;;2068219;28;20218;-55
2023/11/30 03:19:26;;;;;;;7.43;6.63;;;;;20.90;99060.00;;;;2056733;28;20758;-54
2023/11/30 03:20:26;;;;;;;8.03;7.23;;;;;20.90;99062.00;;;;2066934;28;20691;-56
2023/11/30 03:21:27;;;;;;;7.40;6.60;;;;;20.90;99058.00;;;;2068117;28;20213;-53
2023/11/30 03:22:27;;;;;;;8.03;7.23;;;;;20.90;99059.00;;;;2069208;28;20240;-53
2023/11/30 03:23:28;;;;;;;6.80;6.17;;;;;20.90;99082.00;;;;2068925;28;20445;-53
2023/11/30 03:24:28;;;;;;;6.83;6.13;;;;;20.90;99061.00;;;;2062320;28;20752;-53
2023/11/30 03:25:29;;;;;;;7.23;6.53;;;;;20.90;99057.00;;;;2070062;28;20225;-53
2023/11/30 03:26:29;;;;;;;7.87;6.93;;;;;20.90;99059.00;;;;2071465;28;20216;-53
2023/11/30 03:27:29;;;;;;;7.83;6.90;;;;;20.90;99059.00;;;;2067507;28;20218;-53
2023/11/30 03:28:30;;;;;;;7.77;6.97;;;;;20.80;99058.00;;;;2069699;28;20263;-53
2023/11/30 03:29:30;;;;;;;7.67;6.57;;;;;20.80;99065.00;;;;2058768;28;20214;-53
2023/11/30 03:30:30;;;;;;;8.07;7.27;;;;;20.80;99061.00;;;;2069727;28;20260;-53
2023/11/30 03:31:31;;;;;;;8.00;7.20;;;;;20.90;99068.00;;;;2069644;28;20210;-53
2023/11/30 03:32:32;;;;;;;8.93;7.00;;;;;20.80;99066.00;;;;2069051;28;20242;-53
2023/11/30 03:33:32;;;;;;;6.65;6.00;;;;;20.80;99063.00;;;;2069723;28;20221;-53
2023/11/30 03:34:32;;;;;;;8.20;7.30;;;;;20.80;99066.00;;;;2057708;28;20252;-53
2023/11/30 03:35:33;;;;;;;7.03;6.23;;;;;20.80;99063.00;;;;2069801;28;20198;-53
2023/11/30 03:36:33;;;;;;;6.80;6.17;;;;;20.80;99056.00;;;;2068677;28;20202;-53
2023/11/30 03:37:33;;;;;;;7.10;6.43;;;;;20.80;99064.00;;;;2067535;28;20234;-53
2023/11/30 03:38:34;;;;;;;7.00;6.30;;;;;20.80;99061.00;;;;2069584;28;20259;-53
2023/11/30 03:39:34;;;;;;;8.10;7.10;;;;;20.80;99065.00;;;;2058271;28;20253;-53
2023/11/30 03:40:34;;;;;;;8.60;6.60;;;;;20.80;99059.00;;;;2069328;28;20206;-53
2023/11/30 03:41:35;;;;;;;6.87;6.23;;;;;20.80;99058.00;;;;2068868;28;20830;-53
2023/11/30 03:42:35;;;;;;;6.97;6.10;;;;;20.80;99054.00;;;;2069915;28;20710;-53
2023/11/30 03:43:35;;;;;;;7.73;6.93;;;;;20.80;99079.00;;;;2069501;28;20226;-53
2023/11/30 03:44:36;;;;;;;6.40;5.60;;;;;20.80;99087.00;;;;2058048;28;20210;-52
2023/11/30 03:45:36;;;;;;;7.20;6.37;;;;;20.80;99050.00;;;;2069171;28;20322;-52
2023/11/30 03:46:37;;;;;;;7.37;6.50;;;;;20.80;99042.00;;;;2066817;28;20206;-53
2023/11/30 03:47:37;;;;;;;7.43;6.53;;;;;20.80;99054.00;;;;2068619;28;20237;-53
2023/11/30 03:48:37;;;;;;;7.67;6.90;;;;;20.80;99056.00;;;;2068609;28;20218;-53
2023/11/30 03:49:38;;;;;;;7.80;6.10;;;;;20.80;99051.00;;;;2059617;28;20250;-53
2023/11/30 03:50:38;;;;;;;6.93;6.23;;;;;20.80;99052.00;;;;2068843;28;20211;-53
2023/11/30 03:51:38;;;;;;;6.70;6.00;;;;;20.80;99059.00;;;;2069074;28;20257;-52
2023/11/30 03:52:39;;;;;;;7.40;6.13;;;;;20.80;99061.00;;;;2069455;28;20210;-53
2023/11/30 03:53:39;;;;;;;6.97;6.27;;;;;20.80;99060.00;;;;2068235;28;20253;-53
2023/11/30 03:54:39;;;;;;;6.90;6.10;;;;;20.80;99051.00;;;;2059217;28;20222;-53
2023/11/30 03:55:40;;;;;;;7.20;6.50;;;;;20.80;99047.00;;;;2069378;28;20206;-53
2023/11/30 03:56:40;;;;;;;7.20;6.50;;;;;20.80;99055.00;;;;2068812;28;20249;-53
2023/11/30 03:57:40;;;;;;;6.60;6.00;;;;;20.80;99060.00;;;;2068194;28;20211;-52
2023/11/30 03:58:41;;;;;;;8.13;6.47;;;;;20.80;99060.00;;;;2068637;28;20245;-54
2023/11/30 03:59:41;;;;;;;6.80;6.10;;;;;20.80;99059.00;;;;2059818;28;20238;-53
2023/11/30 04:00:41;;;;;;;6.83;6.10;;;;;20.70;99058.00;;;;2069060;28;20213;-53
2023/11/30 04:01:42;;;;;;;6.70;6.10;;;;;20.70;99052.00;;;;2069392;28;20210;-53
2023/11/30 04:02:42;;;;;;;7.00;6.30;;;;;20.80;99059.00;;;;2064902;28;20250;-53
2023/11/30 04:03:42;;;;;;;6.90;6.10;;;;;20.70;99049.00;;;;2069249;28;20210;-53
2023/11/30 04:04:43;;;;;;;6.23;5.63;;;;;20.80;99058.00;;;;2054167;28;20241;-53
2023/11/30 04:05:43;;;;;;;6.57;5.87;;;;;20.70;99061.00;;;;2068521;28;20220;-53
2023/11/30 04:06:43;;;;;;;6.70;6.00;;;;;20.70;99063.00;;;;2066509;28;20214;-54
2023/11/30 04:07:44;;;;;;;6.70;6.10;;;;;20.70;99059.00;;;;2067520;28;20546;-53
2023/11/30 04:08:44;;;;;;;6.90;6.30;;;;;20.70;99061.00;;;;2068015;28;21040;-53
2023/11/30 04:09:46;;;;;;;6.90;6.30;;;;;20.70;99059.00;;;;2059805;28;20718;-53
2023/11/30 04:10:46;;;;;;;6.45;5.85;;;;;20.70;99058.00;;;;2070565;28;20238;-53
2023/11/30 04:11:47;;;;;;;7.03;6.33;;;;;20.70;99057.00;;;;2069800;28;20234;-52
2023/11/30 04:12:47;;;;;;;6.83;5.90;;;;;20.70;99057.00;;;;2070592;28;20219;-52
2023/11/30 04:13:47;;;;;;;6.17;5.57;;;;;20.70;99051.00;;;;2071140;28;20218;-53
2023/11/30 04:14:48;;;;;;;6.03;4.90;;;;;20.70;99055.00;;;;2059874;28;20250;-53
2023/11/30 04:15:48;;;;;;;6.27;5.67;;;;;20.70;99060.00;;;;2070968;28;20210;-53
2023/11/30 04:16:48;;;;;;;7.70;5.87;;;;;20.70;99051.00;;;;2065533;28;20218;-53
2023/11/30 04:17:49;;;;;;;7.10;5.73;;;;;20.70;99060.00;;;;2070162;28;20767;-53
2023/11/30 04:18:49;;;;;;;6.57;5.97;;;;;20.70;99056.00;;;;2070246;28;20702;-54
2023/11/30 04:19:49;;;;;;;6.23;5.60;;;;;20.70;99059.00;;;;2058580;28;20271;-53
2023/11/30 04:20:50;;;;;;;6.33;5.73;;;;;20.70;99062.00;;;;2070857;28;20214;-52
2023/11/30 04:21:50;;;;;;;6.80;6.20;;;;;20.70;99055.00;;;;2061203;28;20214;-53
2023/11/30 04:22:50;;;;;;;5.90;5.33;;;;;20.70;99053.00;;;;2065891;28;20229;-53
2023/11/30 04:23:51;;;;;;;6.13;5.53;;;;;20.70;99049.00;;;;2070884;28;20221;-53
2023/11/30 04:24:51;;;;;;;6.73;6.00;;;;;20.70;99047.00;;;;2060437;28;20218;-53
2023/11/30 04:25:52;;;;;;;6.20;5.60;;;;;20.70;99044.00;;;;2070267;28;20244;-52
2023/11/30 04:26:52;;;;;;;6.33;5.13;;;;;20.70;99056.00;;;;2068710;28;20944;-53
2023/11/30 04:27:53;;;;;;;6.13;5.40;;;;;20.70;99053.00;;;;2069907;28;20840;-54
2023/11/30 04:28:53;;;;;;;6.20;5.60;;;;;20.70;99044.00;;;;2070213;28;20257;-53
2023/11/30 04:29:53;;;;;;;6.90;6.20;;;;;20.60;99041.00;;;;2061230;28;20221;-53
2023/11/30 04:30:54;;;;;;;6.70;5.87;;;;;20.60;99047.00;;;;2070805;28;20218;-53
2023/11/30 04:31:54;;;;;;;5.47;4.93;;;;;20.60;99039.00;;;;2070407;28;20360;-53
2023/11/30 04:32:55;;;;;;;7.73;6.00;;;;;20.60;99053.00;;;;2069915;28;20222;-53
2023/11/30 04:33:55;;;;;;;6.27;5.67;;;;;20.70;99038.00;;;;2065507;28;20337;-53
2023/11/30 04:34:55;;;;;;;5.93;5.33;;;;;20.60;99041.00;;;;2068064;28;20708;-53
2023/11/30 04:35:56;;;;;;;6.80;6.10;;;;;20.60;99038.00;;;;2068552;28;20900;-53
2023/11/30 04:36:56;;;;;;;6.70;6.10;;;;;20.60;99044.00;;;;2069486;28;20700;-53
2023/11/30 04:37:56;;;;;;;6.50;5.80;;;;;20.60;99040.00;;;;2067484;28;20222;-53
2023/11/30 04:38:57;;;;;;;6.00;5.40;;;;;20.60;99038.00;;;;2060224;28;20218;-53
2023/11/30 04:39:57;;;;;;;5.73;5.00;;;;;20.60;99036.00;;;;2071097;28;20233;-53
2023/11/30 04:40:58;;;;;;;6.37;5.77;;;;;20.70;99043.00;;;;2069035;28;20283;-53
2023/11/30 04:41:58;;;;;;;6.10;5.50;;;;;20.60;99035.00;;;;2070826;28;20222;-53
2023/11/30 04:42:58;;;;;;;7.17;6.10;;;;;20.60;99036.00;;;;2070401;28;20222;-52
2023/11/30 04:43:59;;;;;;;6.40;5.80;;;;;20.60;99030.00;;;;2060747;28;20314;-53
2023/11/30 04:44:59;;;;;;;5.50;5.00;;;;;20.60;99039.00;;;;2069939;28;20267;-53
2023/11/30 04:45:59;;;;;;;6.47;5.63;;;;;20.60;99040.00;;;;2070406;28;20222;-52
2023/11/30 04:47:00;;;;;;;6.83;5.80;;;;;20.60;99033.00;;;;2065071;28;20281;-53
2023/11/30 04:48:01;;;;;;;6.93;5.60;;;;;20.60;99063.00;;;;2069949;28;20686;-54
2023/11/30 04:49:01;;;;;;;5.90;5.10;;;;;20.60;99032.00;;;;2060827;28;20218;-53
2023/11/30 04:50:01;;;;;;;7.10;5.73;;;;;20.60;99028.00;;;;2068082;28;20224;-53
2023/11/30 04:51:02;;;;;;;6.10;5.47;;;;;20.60;99040.00;;;;2068619;28;20224;-53
2023/11/30 04:52:02;;;;;;;7.57;5.67;;;;;20.60;99029.00;;;;2070826;28;20226;-53
2023/11/30 04:53:03;;;;;;;5.80;5.23;;;;;20.60;99029.00;;;;2070298;28;20218;-53
2023/11/30 04:54:03;;;;;;;6.67;5.70;;;;;20.60;99028.00;;;;2060680;28;20281;-53
2023/11/30 04:55:04;;;;;;;7.00;5.70;;;;;20.60;99026.00;;;;2070085;28;20301;-53
2023/11/30 04:56:04;;;;;;;6.90;6.20;;;;;20.60;99026.00;;;;2070600;28;20218;-53
2023/11/30 04:57:05;;;;;;;6.77;5.67;;;;;20.60;99025.00;;;;2064917;28;20607;-53
2023/11/30 04:58:05;;;;;;;7.13;6.20;;;;;20.60;99021.00;;;;2069396;28;20222;-53
2023/11/30 04:59:06;;;;;;;6.23;5.50;;;;;20.60;99017.00;;;;2060726;28;20214;-52